createdAt,value
2024-03-13T00:00:37.640Z,1010.4
2024-03-13T00:02:22.645Z,1010.52
2024-03-13T00:04:07.717Z,1010.39
2024-03-13T00:05:52.657Z,1010.46
2024-03-13T00:07:37.658Z,1010.42
2024-03-13T00:09:22.651Z,1010.38
2024-03-13T00:11:07.717Z,1010.29
2024-03-13T00:12:52.725Z,1010.44
2024-03-13T00:14:37.666Z,1010.43
2024-03-13T00:16:22.724Z,1010.39
2024-03-13T00:18:07.725Z,1010.49
2024-03-13T00:19:52.682Z,1010.41
2024-03-13T00:21:37.678Z,1010.39
2024-03-13T00:23:22.666Z,1010.41
2024-03-13T00:25:07.746Z,1010.51
2024-03-13T00:26:52.705Z,1010.46
2024-03-13T00:28:37.681Z,1010.48
2024-03-13T00:30:22.699Z,1010.4
2024-03-13T00:32:07.717Z,1010.51
2024-03-13T00:33:52.720Z,1010.46
2024-03-13T00:35:37.965Z,1010.41
2024-03-13T00:37:23.031Z,1010.51
2024-03-13T00:39:09.836Z,1010.47
2024-03-13T00:40:52.701Z,1010.48
2024-03-13T00:42:37.712Z,1010.43
2024-03-13T00:44:22.723Z,1010.4
2024-03-13T00:46:07.707Z,1010.39
2024-03-13T00:47:52.827Z,1010.27
2024-03-13T00:49:37.726Z,1010.43
2024-03-13T00:51:23.006Z,1010.32
2024-03-13T00:53:07.728Z,1010.4
2024-03-13T00:54:52.795Z,1010.37
2024-03-13T00:56:37.712Z,1010.42
2024-03-13T00:58:22.722Z,1010.38
2024-03-13T01:00:07.727Z,1010.39
2024-03-13T01:01:52.796Z,1010.45
2024-03-13T01:03:37.734Z,1010.47
2024-03-13T01:05:22.765Z,1010.46
2024-03-13T01:07:08.155Z,1010.45
2024-03-13T01:08:52.751Z,1010.47
2024-03-13T01:10:37.782Z,1010.5
2024-03-13T01:12:22.738Z,1010.55
2024-03-13T01:14:07.731Z,1010.37
2024-03-13T01:15:52.827Z,1010.46
2024-03-13T01:17:37.793Z,1010.56
2024-03-13T01:19:23.007Z,1010.56
2024-03-13T01:21:07.768Z,1010.53
2024-03-13T01:22:52.733Z,1010.49
2024-03-13T01:24:37.737Z,1010.51
2024-03-13T01:26:22.752Z,1010.4
2024-03-13T01:28:07.819Z,1010.49
2024-03-13T01:29:52.737Z,1010.41
2024-03-13T01:31:37.766Z,1010.42
2024-03-13T01:33:22.763Z,1010.46
2024-03-13T01:35:07.793Z,1010.47
2024-03-13T01:36:52.780Z,1010.52
2024-03-13T01:38:37.797Z,1010.46
2024-03-13T01:40:22.780Z,1010.44
2024-03-13T01:42:07.741Z,1010.47
2024-03-13T01:43:52.777Z,1010.48
2024-03-13T01:45:37.792Z,1010.46
2024-03-13T01:47:22.756Z,1010.49
2024-03-13T01:49:07.791Z,1010.42
2024-03-13T01:50:52.788Z,1010.42
2024-03-13T01:52:37.774Z,1010.45
2024-03-13T01:54:22.752Z,1010.46
2024-03-13T01:56:07.804Z,1010.4
2024-03-13T01:57:52.805Z,1010.5
2024-03-13T01:59:37.775Z,1010.52
2024-03-13T02:01:22.872Z,1010.43
2024-03-13T02:03:07.797Z,1010.46
2024-03-13T02:04:52.792Z,1010.55
2024-03-13T02:06:37.814Z,1010.46
2024-03-13T02:08:22.812Z,1010.36
2024-03-13T02:10:07.862Z,1010.4
2024-03-13T02:11:52.827Z,1010.41
2024-03-13T02:13:37.889Z,1010.41
2024-03-13T02:15:22.818Z,1010.33
2024-03-13T02:17:07.863Z,1010.32
2024-03-13T02:18:52.940Z,1010.33
2024-03-13T02:20:37.806Z,1010.26
2024-03-13T02:22:22.905Z,1010.3
2024-03-13T02:24:08.171Z,1010.22
2024-03-13T02:25:53.112Z,1010.2
2024-03-13T02:27:37.831Z,1010.29
2024-03-13T02:29:22.814Z,1010.37
2024-03-13T02:31:07.861Z,1010.3
2024-03-13T02:32:52.820Z,1010.28
2024-03-13T02:34:37.801Z,1010.33
2024-03-13T02:36:23.165Z,1010.15
2024-03-13T02:38:07.837Z,1010.26
2024-03-13T02:39:52.840Z,1010.31
2024-03-13T02:41:37.844Z,1010.25
2024-03-13T02:43:22.999Z,1010.28
2024-03-13T02:45:07.834Z,1010.37
2024-03-13T02:46:52.832Z,1010.32
2024-03-13T02:48:37.997Z,1010.24
2024-03-13T02:50:22.825Z,1010.37
2024-03-13T02:52:07.863Z,1010.29
2024-03-13T02:53:52.849Z,1010.29
2024-03-13T02:55:37.838Z,1010.33
2024-03-13T02:57:22.860Z,1010.35
2024-03-13T02:59:07.833Z,1010.38
2024-03-13T03:00:53.000Z,1010.32
2024-03-13T03:02:37.882Z,1010.36
2024-03-13T03:04:22.892Z,1010.37
2024-03-13T03:06:07.876Z,1010.31
2024-03-13T03:07:52.860Z,1010.31
2024-03-13T03:09:37.873Z,1010.32
2024-03-13T03:11:22.873Z,1010.25
2024-03-13T03:13:07.919Z,1010.26
2024-03-13T03:14:52.850Z,1010.26
2024-03-13T03:16:37.860Z,1010.3
2024-03-13T03:18:22.928Z,1010.47
2024-03-13T03:20:07.931Z,1010.27
2024-03-13T03:21:52.907Z,1010.27
2024-03-13T03:23:37.919Z,1010.35
2024-03-13T03:25:22.936Z,1010.31
2024-03-13T03:27:07.915Z,1010.34
2024-03-13T03:28:52.902Z,1010.35
2024-03-13T03:30:37.911Z,1010.28
2024-03-13T03:32:22.905Z,1010.29
2024-03-13T03:34:07.925Z,1010.35
2024-03-13T03:35:52.924Z,1010.36
2024-03-13T03:37:37.886Z,1010.38
2024-03-13T03:39:22.875Z,1010.41
2024-03-13T03:41:07.929Z,1010.42
2024-03-13T03:42:52.964Z,1010.38
2024-03-13T03:44:37.951Z,1010.37
2024-03-13T03:46:22.983Z,1010.49
2024-03-13T03:48:11.602Z,1010.38
2024-03-13T03:49:52.940Z,1010.4
2024-03-13T03:51:37.921Z,1010.42
2024-03-13T03:53:22.922Z,1010.28
2024-03-13T03:55:07.957Z,1010.38
2024-03-13T03:56:52.916Z,1010.39
2024-03-13T03:58:37.937Z,1010.38
2024-03-13T04:00:22.898Z,1010.37
2024-03-13T04:02:07.975Z,1010.42
2024-03-13T04:03:52.959Z,1010.49
2024-03-13T04:05:37.927Z,1010.47
2024-03-13T04:07:23.042Z,1010.38
2024-03-13T04:09:07.903Z,1010.45
2024-03-13T04:10:52.956Z,1010.4
2024-03-13T04:12:37.972Z,1010.45
2024-03-13T04:14:22.947Z,1010.52
2024-03-13T04:16:08.025Z,1010.49
2024-03-13T04:17:53.003Z,1010.45
2024-03-13T04:19:38.300Z,1010.5
2024-03-13T04:21:22.961Z,1010.56
2024-03-13T04:23:07.905Z,1010.47
2024-03-13T04:24:52.956Z,1010.5
2024-03-13T04:26:37.929Z,1010.54
2024-03-13T04:28:22.967Z,1010.51
2024-03-13T04:30:07.963Z,1010.6
2024-03-13T04:31:52.982Z,1010.5
2024-03-13T04:33:37.925Z,1010.49
2024-03-13T04:35:22.944Z,1010.55
2024-03-13T04:37:07.989Z,1010.61
2024-03-13T04:38:53.291Z,1010.49
2024-03-13T04:40:38.140Z,1010.53
2024-03-13T04:42:22.972Z,1010.62
2024-03-13T04:44:07.959Z,1010.58
2024-03-13T04:45:52.957Z,1010.56
2024-03-13T04:47:40.591Z,1010.65
2024-03-13T04:49:23.152Z,1010.69
2024-03-13T04:51:07.964Z,1010.72
2024-03-13T04:52:52.985Z,1010.73
2024-03-13T04:54:37.949Z,1010.69
2024-03-13T04:56:23.110Z,1010.79
2024-03-13T04:58:08.047Z,1010.7
2024-03-13T04:59:53.015Z,1010.69
2024-03-13T05:01:38.070Z,1010.64
2024-03-13T05:03:22.978Z,1010.67
2024-03-13T05:05:08.004Z,1010.76
2024-03-13T05:06:53.028Z,1010.66
2024-03-13T05:08:38.026Z,1010.68
2024-03-13T05:10:23.044Z,1010.72
2024-03-13T05:12:07.991Z,1010.84
2024-03-13T05:13:52.999Z,1010.75
2024-03-13T05:15:38.055Z,1010.75
2024-03-13T05:17:23.036Z,1010.79
2024-03-13T05:19:08.020Z,1010.81
2024-03-13T05:20:53.049Z,1010.83
2024-03-13T05:22:38.344Z,1010.86
2024-03-13T05:24:23.016Z,1010.91
2024-03-13T05:26:07.997Z,1010.88
2024-03-13T05:27:53.017Z,1010.94
2024-03-13T05:29:38.023Z,1010.89
2024-03-13T05:31:23.148Z,1010.82
2024-03-13T05:33:08.061Z,1010.93
2024-03-13T05:34:53.045Z,1010.8
2024-03-13T05:36:38.338Z,1010.99
2024-03-13T05:38:23.052Z,1010.94
2024-03-13T05:40:08.075Z,1010.92
2024-03-13T05:41:53.036Z,1010.9
2024-03-13T05:43:38.136Z,1010.91
2024-03-13T05:45:23.036Z,1011.01
2024-03-13T05:47:08.061Z,1010.91
2024-03-13T05:48:53.360Z,1011.03
2024-03-13T05:50:38.061Z,1010.93
2024-03-13T05:52:23.385Z,1010.99
2024-03-13T05:54:08.081Z,1010.96
2024-03-13T05:55:53.080Z,1011.02
2024-03-13T05:57:38.103Z,1011.03
2024-03-13T05:59:23.102Z,1011.1
2024-03-13T06:01:08.427Z,1010.96
2024-03-13T06:02:53.098Z,1011.04
2024-03-13T06:04:38.545Z,1011.02
2024-03-13T06:06:23.065Z,1011.13
2024-03-13T06:08:08.096Z,1011.03
2024-03-13T06:09:53.056Z,1011.03
2024-03-13T06:11:38.143Z,1011.07
2024-03-13T06:13:23.107Z,1011.15
2024-03-13T06:15:08.084Z,1011.02
2024-03-13T06:16:53.094Z,1011.12
2024-03-13T06:18:38.150Z,1011.13
2024-03-13T06:20:23.120Z,1011.13
2024-03-13T06:22:08.164Z,1011.25
2024-03-13T06:23:53.093Z,1011.15
2024-03-13T06:25:38.149Z,1011.17
2024-03-13T06:27:23.090Z,1011.2
2024-03-13T06:29:08.111Z,1011.21
2024-03-13T06:30:53.335Z,1011.24
2024-03-13T06:32:38.201Z,1011.05
2024-03-13T06:34:23.151Z,1011.25
2024-03-13T06:36:08.151Z,1011.22
2024-03-13T06:37:53.104Z,1011.24
2024-03-13T06:39:38.103Z,1011.21
2024-03-13T06:41:23.161Z,1011.23
2024-03-13T06:43:08.129Z,1011.3
2024-03-13T06:44:55.002Z,1011.23
2024-03-13T06:46:38.204Z,1011.13
2024-03-13T06:48:23.100Z,1011.31
2024-03-13T06:50:08.146Z,1011.27
2024-03-13T06:51:53.235Z,1011.21
2024-03-13T06:53:38.131Z,1011.22
2024-03-13T06:55:23.210Z,1011.14
2024-03-13T06:57:08.156Z,1011.29
2024-03-13T06:58:53.145Z,1011.2
2024-03-13T07:00:38.162Z,1011.19
2024-03-13T07:02:23.216Z,1011.21
2024-03-13T07:04:08.185Z,1011.19
2024-03-13T07:05:53.202Z,1011.2
2024-03-13T07:07:38.212Z,1011.27
2024-03-13T07:09:23.141Z,1011.2
2024-03-13T07:11:08.185Z,1011.3
2024-03-13T07:12:53.162Z,1011.38
2024-03-13T07:14:38.173Z,1011.3
2024-03-13T07:16:23.171Z,1011.35
2024-03-13T07:18:08.228Z,1011.29
2024-03-13T07:19:53.157Z,1011.26
2024-03-13T07:21:39.588Z,1011.25
2024-03-13T07:23:23.200Z,1011.25
2024-03-13T07:25:08.220Z,1011.38
2024-03-13T07:26:53.182Z,1011.34
2024-03-13T07:28:38.231Z,1011.38
2024-03-13T07:30:23.234Z,1011.32
2024-03-13T15:27:51.349Z,1012.46
2024-03-13T15:29:36.243Z,1012.39
2024-03-13T15:31:21.248Z,1012.45
2024-03-13T15:33:06.314Z,1012.43
2024-03-13T15:34:51.350Z,1012.43
2024-03-13T15:36:36.282Z,1012.49
2024-03-13T15:38:21.301Z,1012.53
2024-03-13T15:40:06.286Z,1012.42
2024-03-13T15:41:51.311Z,1012.52
2024-03-13T15:43:36.316Z,1012.43
2024-03-13T15:45:21.408Z,1012.37
2024-03-13T15:47:06.332Z,1012.45
2024-03-13T15:48:51.378Z,1012.42
2024-03-13T15:50:36.626Z,1012.44
2024-03-13T15:52:21.290Z,1012.46
2024-03-13T15:54:06.435Z,1012.45
2024-03-13T15:55:51.292Z,1012.55
2024-03-13T15:57:36.329Z,1012.56
2024-03-13T15:59:21.314Z,1012.51
2024-03-13T16:01:06.418Z,1012.47
2024-03-13T16:02:51.330Z,1012.49
2024-03-13T16:04:36.302Z,1012.55
2024-03-13T16:06:21.332Z,1012.44
2024-03-13T16:08:06.306Z,1012.53
2024-03-13T16:09:51.292Z,1012.44
2024-03-13T16:11:36.637Z,1012.54
2024-03-13T16:13:21.585Z,1012.57
2024-03-13T16:15:06.353Z,1012.51
2024-03-13T16:16:51.294Z,1012.52
2024-03-13T16:18:36.686Z,1012.6
2024-03-13T16:20:21.321Z,1012.54
2024-03-13T16:22:06.295Z,1012.59
2024-03-13T16:23:51.318Z,1012.59
2024-03-13T16:25:36.351Z,1012.64
2024-03-13T16:27:21.452Z,1012.58
2024-03-13T16:29:06.316Z,1012.59
2024-03-13T16:30:51.364Z,1012.45
2024-03-13T16:32:36.365Z,1012.56
2024-03-13T16:34:21.317Z,1012.58
2024-03-13T16:36:06.406Z,1012.66
2024-03-13T16:37:51.375Z,1012.64
2024-03-13T16:39:36.343Z,1012.59
2024-03-13T16:41:21.334Z,1012.53
2024-03-13T16:43:06.333Z,1012.6
2024-03-13T16:44:51.348Z,1012.58
2024-03-13T16:46:36.381Z,1012.47
2024-03-13T16:48:21.426Z,1012.6
2024-03-13T16:50:06.349Z,1012.55
2024-03-13T16:51:51.338Z,1012.56
2024-03-13T16:53:36.388Z,1012.64
2024-03-13T16:55:21.374Z,1012.61
2024-03-13T16:57:06.388Z,1012.65
2024-03-13T16:58:51.433Z,1012.69
2024-03-13T17:00:36.383Z,1012.58
2024-03-13T17:02:21.366Z,1012.58
2024-03-13T17:04:06.415Z,1012.5
2024-03-13T17:05:51.409Z,1012.61
2024-03-13T17:07:36.402Z,1012.62
2024-03-13T17:09:21.403Z,1012.67
2024-03-13T17:11:06.437Z,1012.6
2024-03-13T17:12:51.384Z,1012.53
2024-03-13T17:14:36.388Z,1012.62
2024-03-13T17:16:21.418Z,1012.73
2024-03-13T17:18:06.482Z,1012.72
2024-03-13T17:19:51.427Z,1012.66
2024-03-13T17:21:36.397Z,1012.62
2024-03-13T17:23:21.401Z,1012.68
2024-03-13T17:25:06.390Z,1012.73
2024-03-13T17:26:51.479Z,1012.71
2024-03-13T17:28:36.406Z,1012.7
2024-03-13T17:30:21.565Z,1012.77
2024-03-13T17:32:06.469Z,1012.82
2024-03-13T17:33:51.542Z,1012.7
2024-03-13T17:35:36.392Z,1012.74
2024-03-13T17:37:21.412Z,1012.72
2024-03-13T17:39:06.559Z,1012.87
2024-03-13T17:40:51.434Z,1012.84
2024-03-13T17:42:36.477Z,1012.8
2024-03-13T17:44:21.446Z,1012.89
2024-03-13T17:46:06.446Z,1012.89
2024-03-13T17:47:51.516Z,1012.85
2024-03-13T17:49:36.458Z,1012.89
2024-03-13T17:51:21.468Z,1012.8
2024-03-13T17:53:06.445Z,1012.84
2024-03-13T17:54:51.502Z,1012.92
2024-03-13T17:56:36.466Z,1012.92
2024-03-13T17:58:21.486Z,1012.94
2024-03-13T18:00:06.519Z,1012.95
2024-03-13T18:01:51.479Z,1013.01
2024-03-13T18:03:36.466Z,1013.05
2024-03-13T18:05:21.466Z,1012.93
2024-03-13T18:07:06.457Z,1012.99
2024-03-13T18:08:51.496Z,1012.99
2024-03-13T18:10:38.581Z,1013.02
2024-03-13T18:12:21.818Z,1013.03
2024-03-13T18:14:06.514Z,1013.06
2024-03-13T18:15:51.474Z,1013.06
2024-03-13T18:17:36.536Z,1013.1
2024-03-13T18:19:21.489Z,1013.11
2024-03-13T18:21:06.564Z,1013.08
2024-03-13T18:22:51.479Z,1013.11
2024-03-13T18:24:36.501Z,1013.03
2024-03-13T18:26:21.519Z,1013.05
2024-03-13T18:28:06.506Z,1013.06
2024-03-13T18:29:51.545Z,1013.07
2024-03-13T18:31:36.511Z,1013.18
2024-03-13T18:33:21.559Z,1013.12
2024-03-13T18:35:06.561Z,1013.14
2024-03-13T18:36:51.528Z,1013.2
2024-03-13T18:38:36.530Z,1013.13
2024-03-13T18:40:21.553Z,1013.21
2024-03-13T18:42:06.574Z,1013.17
2024-03-13T18:43:51.527Z,1013.25
2024-03-13T18:45:36.564Z,1013.18
2024-03-13T18:47:21.519Z,1013.21
2024-03-13T18:49:06.703Z,1013.19
2024-03-13T18:50:51.544Z,1013.12
2024-03-13T18:52:36.512Z,1013.24
2024-03-13T18:54:21.555Z,1013.17
2024-03-13T18:56:06.526Z,1013.2
2024-03-13T18:57:51.527Z,1013.19
2024-03-13T18:59:36.545Z,1013.13
2024-03-13T19:01:21.599Z,1013.19
2024-03-13T19:03:06.733Z,1013.18
2024-03-13T19:04:57.068Z,1013.15
2024-03-13T19:06:36.685Z,1013.06
2024-03-13T19:08:21.594Z,1013.08
2024-03-13T19:10:06.536Z,1013.09
2024-03-13T19:11:51.667Z,1013.15
2024-03-13T19:13:36.568Z,1013.14
2024-03-13T19:15:21.633Z,1013.07
2024-03-13T19:17:06.550Z,1013.18
2024-03-13T19:18:51.578Z,1013.1
2024-03-13T19:20:36.596Z,1013.11
2024-03-13T19:22:21.612Z,1013.11
2024-03-13T19:24:06.659Z,1013.17
2024-03-13T19:25:51.608Z,1013.12
2024-03-13T19:27:36.566Z,1013.21
2024-03-13T19:29:22.239Z,1013.06
2024-03-13T19:31:06.571Z,1013.12
2024-03-13T19:32:51.940Z,1013.12
2024-03-13T19:34:38.100Z,1013.19
2024-03-13T19:36:21.922Z,1013.11
2024-03-13T19:38:06.626Z,1013.08
2024-03-13T19:39:51.641Z,1013.2
2024-03-13T19:41:36.684Z,1013.18
2024-03-13T19:43:21.591Z,1013.18
2024-03-13T19:45:06.707Z,1013.13
2024-03-13T19:46:51.599Z,1013.17
2024-03-13T19:48:36.778Z,1013.23
2024-03-13T19:50:21.621Z,1013.12
2024-03-13T19:52:06.576Z,1013.18
2024-03-13T19:53:51.839Z,1013.18
2024-03-13T19:55:36.687Z,1013.23
2024-03-13T19:57:21.716Z,1013.16
2024-03-13T19:59:06.596Z,1013.13
2024-03-13T20:00:51.647Z,1013.04
2024-03-13T20:02:36.635Z,1013.2
2024-03-13T20:04:21.625Z,1013.17
2024-03-13T20:06:06.678Z,1013.14
2024-03-13T20:07:51.642Z,1013.17
2024-03-13T20:09:36.630Z,1013.01
2024-03-13T20:11:21.703Z,1013.04
2024-03-13T20:13:06.648Z,1013.05
2024-03-13T20:14:51.667Z,1012.93
2024-03-13T20:16:36.647Z,1012.94
2024-03-13T20:18:21.764Z,1012.9
2024-03-13T20:20:06.634Z,1012.94
2024-03-13T20:21:51.640Z,1012.92
2024-03-13T20:23:36.639Z,1012.95
2024-03-13T20:25:21.670Z,1012.92
2024-03-13T20:27:06.758Z,1012.89
2024-03-13T20:28:51.676Z,1012.86
2024-03-13T20:30:36.736Z,1012.92
2024-03-13T20:32:21.665Z,1012.95
2024-03-13T20:34:06.787Z,1012.89
2024-03-13T20:35:51.695Z,1012.84
2024-03-13T20:37:36.653Z,1012.81
2024-03-13T20:39:21.973Z,1012.83
2024-03-13T20:41:06.675Z,1012.87
2024-03-13T20:42:51.660Z,1012.88
2024-03-13T20:44:36.649Z,1012.86
2024-03-13T20:46:21.709Z,1012.81
2024-03-13T20:48:06.796Z,1012.71
2024-03-13T20:49:51.721Z,1012.71
2024-03-13T20:51:36.734Z,1012.71
2024-03-13T20:53:21.699Z,1012.71
2024-03-13T20:55:06.705Z,1012.66
2024-03-13T20:56:51.713Z,1012.69
2024-03-13T20:58:36.742Z,1012.67
2024-03-13T21:00:21.751Z,1012.75
2024-03-13T21:02:06.692Z,1012.69
2024-03-13T21:03:51.709Z,1012.67
2024-03-13T21:05:36.673Z,1012.71
2024-03-13T21:07:21.688Z,1012.76
2024-03-13T21:09:06.782Z,1012.72
2024-03-13T21:10:51.776Z,1012.69
2024-03-13T21:12:36.753Z,1012.68
2024-03-13T21:14:21.743Z,1012.74
2024-03-13T21:16:06.808Z,1012.69
2024-03-13T21:17:51.733Z,1012.61
2024-03-13T21:19:36.710Z,1012.72
2024-03-13T21:21:21.783Z,1012.63
2024-03-13T21:23:06.744Z,1012.63
2024-03-13T21:24:51.759Z,1012.67
2024-03-13T21:26:36.753Z,1012.7
2024-03-13T21:28:22.015Z,1012.7
2024-03-13T21:30:06.799Z,1012.68
2024-03-13T21:31:51.760Z,1012.67
2024-03-13T21:33:37.036Z,1012.64
2024-03-13T21:35:21.779Z,1012.63
2024-03-13T21:37:06.748Z,1012.66
2024-03-13T21:38:51.765Z,1012.66
2024-03-13T21:40:36.731Z,1012.6
2024-03-13T21:42:21.796Z,1012.52
2024-03-13T21:44:06.778Z,1012.6
2024-03-13T21:45:51.742Z,1012.54
2024-03-13T21:47:36.754Z,1012.52
2024-03-13T21:49:21.767Z,1012.55
2024-03-13T21:51:06.837Z,1012.47
2024-03-13T21:52:51.795Z,1012.48
2024-03-13T21:54:36.788Z,1012.54
2024-03-13T21:56:21.770Z,1012.48
2024-03-13T21:58:06.764Z,1012.47
2024-03-13T21:59:51.852Z,1012.55
2024-03-13T22:01:36.837Z,1012.46
2024-03-13T22:03:21.811Z,1012.42
2024-03-13T22:05:06.800Z,1012.46
2024-03-13T22:06:51.787Z,1012.5
2024-03-13T22:08:36.810Z,1012.55
2024-03-13T22:10:21.823Z,1012.46
2024-03-13T22:12:06.835Z,1012.37
2024-03-13T22:13:51.798Z,1012.39
2024-03-13T22:15:36.826Z,1012.37
2024-03-13T22:17:22.190Z,1012.46
2024-03-13T22:19:06.841Z,1012.5
2024-03-13T22:20:52.075Z,1012.52
2024-03-13T22:22:36.835Z,1012.59
2024-03-13T22:24:21.858Z,1012.58
2024-03-13T22:26:06.799Z,1012.55
2024-03-13T22:27:51.855Z,1012.6
2024-03-13T22:29:36.807Z,1012.57
2024-03-13T22:31:21.822Z,1012.51
2024-03-13T22:33:07.039Z,1012.61
2024-03-13T22:34:51.816Z,1012.56
2024-03-13T22:36:36.833Z,1012.64
2024-03-13T22:38:21.848Z,1012.56
2024-03-13T22:40:06.845Z,1012.58
2024-03-13T22:41:51.843Z,1012.6
2024-03-13T22:43:36.834Z,1012.55
2024-03-13T22:45:21.918Z,1012.6
2024-03-13T22:47:06.839Z,1012.55
2024-03-13T22:48:51.935Z,1012.5
2024-03-13T22:50:36.832Z,1012.52
2024-03-13T22:52:21.869Z,1012.48
2024-03-13T22:54:06.864Z,1012.5
2024-03-13T22:55:51.866Z,1012.51
2024-03-13T22:57:36.855Z,1012.55
2024-03-13T22:59:21.844Z,1012.59
2024-03-13T23:01:06.926Z,1012.57
2024-03-13T23:02:51.883Z,1012.55
2024-03-13T23:04:36.973Z,1012.58
2024-03-13T23:06:21.888Z,1012.57
2024-03-13T23:08:06.922Z,1012.65
2024-03-13T23:09:51.876Z,1012.59
2024-03-13T23:11:36.892Z,1012.64
2024-03-13T23:13:23.380Z,1012.61
2024-03-13T23:15:07.012Z,1012.65
2024-03-13T23:16:51.903Z,1012.66
2024-03-13T23:18:36.992Z,1012.64
2024-03-13T23:20:21.901Z,1012.56
2024-03-13T23:22:06.886Z,1012.56
2024-03-13T23:23:51.950Z,1012.56
2024-03-13T23:25:36.916Z,1012.5
2024-03-13T23:27:22.016Z,1012.51
2024-03-13T23:29:06.877Z,1012.61
2024-03-13T23:30:51.923Z,1012.57
2024-03-13T23:32:37.000Z,1012.52
2024-03-13T23:34:21.923Z,1012.52
2024-03-13T23:36:06.965Z,1012.61
2024-03-13T23:37:51.954Z,1012.59
2024-03-13T23:39:37.283Z,1012.55
2024-03-13T23:41:21.982Z,1012.53
2024-03-13T23:43:06.920Z,1012.53
2024-03-13T23:44:51.937Z,1012.56
2024-03-13T23:46:36.986Z,1012.6
2024-03-13T23:48:21.973Z,1012.43
2024-03-13T23:50:06.955Z,1012.5
2024-03-13T23:51:51.961Z,1012.46
2024-03-13T23:53:36.935Z,1012.52
2024-03-13T23:55:21.955Z,1012.59
2024-03-13T23:57:06.993Z,1012.56
2024-03-13T23:58:51.963Z,1012.54
